Latest Weather Observations for Cape Bruny AWS

IDT60801

Issued at 2:21 am EST Tuesday 20 April 2021 (issued every 10 minutes, with the page automatically refreshed every 10 minutes)

About weather observations | Map of weather stations | Latest weather observations for TAS | Other Formats
Station Details ID: 094198 Name: CAPE BRUNY (CAPE BRUNY) Lat: -43.49 Lon: 147.14 Height: 59.7 m
Data from the previous 72 hours. | See also: Recent months at Cape Bruny AWS
Date/Time
EST
Temp
°C
App
Temp
°C
Dew
Point
°C
Rel
Hum
%
Delta-T
°C
Wind Press
QNH
hPa
Press
MSL
hPa
Rain since
9am
mm
Dir  Spd
km/h
Gust
km/h
Spd
kts
Gust
kts
20/02:13am 11.3 4.6 9.7 90 0.8 WSW 35 54 19 29 1000.7 1000.7 5.2
20/02:00am 11.7 4.7 9.9 89 0.9 WSW 37 46 20 25 1000.6 1000.6 5.2
20/01:44am 11.8 4.8 9.9 88 1.0 WSW 37 54 20 29 1000.3 1000.3 5.0
20/01:30am 12.0 7.3 10.6 91 0.7 W 26 33 14 18 1000.2 1000.2 4.8
20/01:00am 12.0 7.8 9.9 87 1.1 NW 22 33 12 18 1000.1 1000.1 2.0
20/12:30am 13.6 9.9 10.2 80 1.8 NNW 20 28 11 15 999.4 999.4 0.0
20/12:00am 13.8 10.2 10.0 78 2.0 NNW 19 26 10 14 999.5 999.5 0.0
 
Date/Time
EST
Temp
°C
App
Temp
°C
Dew
Point
°C
Rel
Hum
%
Delta-T
°C
Wind Press
QNH
hPa
Press
MSL
hPa
Rain since
9am
mm
Dir  Spd
km/h
Gust
km/h
Spd
kts
Gust
kts
19/11:30pm 14.3 10.0 9.3 72 2.6 NW 22 30 12 16 999.7 999.7 0.0
19/11:00pm 14.3 9.6 9.3 72 2.6 NW 24 35 13 19 999.8 999.8 0.0
19/10:30pm 14.3 9.9 8.9 70 2.7 NNW 22 32 12 17 1000.3 1000.3 0.0
19/10:00pm 14.2 9.8 8.8 70 2.8 NNW 22 32 12 17 1000.2 1000.2 0.0
19/09:30pm 13.9 9.4 8.7 71 2.6 NNW 22 32 12 17 1000.3 1000.3 0.0
19/09:00pm 13.7 10.2 8.7 72 2.5 N 17 24 9 13 1000.8 1000.8 0.0
19/08:30pm 14.1 10.6 8.7 70 2.7 NNE 17 26 9 14 1000.9 1000.9 0.0
19/08:00pm 14.5 10.2 8.0 65 3.3 N 20 32 11 17 1001.4 1001.4 0.0
19/07:30pm 14.7 9.9 7.5 62 3.6 N 22 32 12 17 1001.6 1001.6 0.0
19/07:00pm 14.7 9.8 7.0 60 3.8 NNW 22 32 12 17 1002.1 1002.0 0.0
19/06:30pm 15.1 9.7 6.4 56 4.2 NNW 24 35 13 19 1002.2 1002.1 0.0
19/06:00pm 15.0 9.1 5.8 54 4.4 NW 26 39 14 21 1002.3 1002.2 0.0
19/05:33pm 15.1 6.8 6.1 55 4.3 NW 39 57 21 31 1002.3 1002.2 0.0
19/05:30pm 15.1 6.1 6.4 56 4.2 NW 43 57 23 31 1002.3 1002.2 0.0
19/05:00pm 15.1 5.5 6.4 56 4.2 WNW 46 65 25 35 1002.2 1002.1 0.0
19/04:40pm 15.7 7.0 7.7 59 4.0 WNW 43 61 23 33 1002.0 1001.9 0.0
19/04:30pm 15.8 7.1 7.8 59 4.0 WNW 43 57 23 31 1002.2 1002.1 0.0
19/04:00pm 15.9 8.2 7.1 56 4.4 WNW 37 52 20 28 1002.1 1002.0 0.0
19/03:31pm 16.1 7.4 6.0 51 4.9 WNW 41 59 22 32 1002.2 1002.1 0.0
19/03:30pm 16.1 7.0 6.0 51 4.9 WNW 43 59 23 32 1002.3 1002.2 0.0
19/03:00pm 16.0 7.1 7.0 55 4.5 WNW 43 65 23 35 1002.9 1002.8 0.0
19/02:40pm 16.1 5.9 6.8 54 4.6 WNW 50 69 27 37 1002.8 1002.7 0.0
19/02:30pm 16.0 6.6 7.2 56 4.4 WNW 46 63 25 34 1002.7 1002.6 0.0
19/02:28pm 16.0 6.9 7.0 55 4.5 WNW 44 63 24 34 1002.7 1002.6 0.0
19/02:12pm 15.9 10.6 6.9 55 4.4 NW 24 46 13 25 1003.1 1003.0 0.0
19/02:00pm 15.7 12.2 7.0 56 4.3 NNW 15 26 8 14 1003.5 1003.4 0.0
19/01:30pm 15.6 11.0 6.6 55 4.4 NW 20 39 11 21 1004.1 1004.0 0.0
19/01:06pm 15.7 9.7 7.0 56 4.3 WNW 28 46 15 25 1004.4 1004.3 0.0
19/01:00pm 15.6 11.2 6.6 55 4.4 WNW 19 41 10 22 1004.4 1004.3 0.0
19/12:30pm 15.3 13.2 8.3 63 3.5 ENE 9 13 5 7 1004.8 1004.7 0.0
19/12:00pm 15.2 12.5 7.3 59 3.9 N 11 24 6 13 1005.2 1005.2 0.0
19/11:30am 15.0 10.8 7.3 60 3.8 NW 19 30 10 16 1005.8 1005.8 0.0
19/11:06am 14.9 8.1 6.7 58 4.0 NW 32 50 17 27 1006.0 1006.0 0.0
19/11:00am 14.8 7.7 6.6 58 4.0 NW 33 50 18 27 1006.0 1006.0 0.0
19/10:30am 14.4 7.6 7.0 61 3.6 WNW 32 50 17 27 1006.3 1006.3 0.0
19/10:22am 14.4 7.5 6.3 58 3.9 WNW 32 50 17 27 1006.2 1006.2 0.0
19/10:00am 14.1 7.2 6.5 60 3.7 WNW 32 43 17 23 1006.4 1006.4 0.0
19/09:30am 14.0 6.9 6.6 61 3.6 WNW 33 44 18 24 1006.8 1006.8 0.0
19/09:00am 13.9 7.8 6.7 62 3.5 NW 28 39 15 21 1007.3 1007.3 0.0
19/08:30am 13.9 8.5 6.5 61 3.6 NW 24 33 13 18 1007.5 1007.5 0.0
19/08:00am 13.3 9.3 6.6 64 3.2 NNW 17 24 9 13 1007.5 1007.5 0.0
19/07:30am 13.1 9.9 6.7 65 3.1 N 13 22 7 12 1007.3 1007.3 0.0
19/07:00am 13.1 9.1 6.5 64 3.2 NNW 17 24 9 13 1007.3 1007.3 0.0
19/06:30am 13.1 9.1 6.7 65 3.1 NNW 17 28 9 15 1007.3 1007.3 0.0
19/06:00am 13.1 9.9 6.7 65 3.1 N 13 20 7 11 1007.4 1007.4 0.0
19/05:30am 12.7 9.6 7.2 69 2.7 NNW 13 20 7 11 1007.7 1007.7 0.0
19/05:00am 12.4 10.5 6.9 69 2.7 N 6 13 3 7 1007.8 1007.8 0.0
19/04:30am 12.9 10.2 7.4 69 2.7 NW 11 17 6 9 1007.8 1007.8 0.0
19/04:00am 13.8 7.2 7.8 67 3.0 W 32 43 17 23 1007.9 1007.9 0.0
19/03:37am 13.3 9.3 8.2 71 2.5 WNW 19 37 10 20 1007.9 1007.9 0.0
19/03:30am 12.8 10.2 7.9 72 2.4 WNW 11 19 6 10 1008.2 1008.2 0.0
19/03:00am 13.0 10.8 7.7 70 2.6 W 9 19 5 10 1008.2 1008.2 0.0
19/02:30am 13.5 9.3 7.5 67 2.9 W 19 30 10 16 1008.4 1008.4 0.0
19/02:08am 13.8 7.1 7.3 65 3.2 W 32 54 17 29 1008.7 1008.7 0.0
19/02:00am 13.7 6.5 7.7 67 3.0 W 35 46 19 25 1008.8 1008.8 0.0
19/01:30am 13.7 5.7 7.5 66 3.0 W 39 57 21 31 1009.1 1009.1 0.0
19/01:01am 13.7 6.3 6.8 63 3.3 WNW 35 56 19 30 1009.1 1009.1 0.0
19/01:00am 13.6 6.6 6.9 64 3.3 W 33 50 18 27 1009.2 1009.2 0.0
19/12:40am 13.7 6.6 6.3 61 3.5 WNW 33 52 18 28 1009.2 1009.2 0.0
19/12:30am 13.7 6.8 6.6 62 3.4 WNW 32 48 17 26 1009.4 1009.4 0.0
19/12:00am 13.6 7.1 6.7 63 3.3 WNW 30 44 16 24 1009.7 1009.7 0.0
 
Date/Time
EST
Temp
°C
App
Temp
°C
Dew
Point
°C
Rel
Hum
%
Delta-T
°C
Wind Press
QNH
hPa
Press
MSL
hPa
Rain since
9am
mm
Dir  Spd
km/h
Gust
km/h
Spd
kts
Gust
kts
18/11:47pm 13.7 7.2 6.6 62 3.4 WNW 30 44 16 24 1009.6 1009.6 0.0
18/11:30pm 13.5 9.3 7.3 66 3.0 WNW 19 24 10 13 1009.7 1009.7 0.0
18/11:00pm 13.2 9.0 7.4 68 2.8 NW 19 28 10 15 1009.9 1009.9 0.0
18/10:30pm 13.1 9.3 7.5 69 2.7 NNW 17 22 9 12 1010.3 1010.3 0.0
18/10:00pm 13.5 8.2 8.4 71 2.6 W 26 35 14 19 1010.6 1010.6 0.0
18/09:30pm 13.6 9.5 8.0 69 2.8 WNW 19 32 10 17 1011.1 1011.1 0.0
18/09:00pm 13.5 9.3 7.5 67 2.9 NW 19 26 10 14 1011.1 1011.1 0.0
18/08:30pm 12.9 9.4 7.1 68 2.8 WNW 15 22 8 12 1010.6 1010.6 0.0
18/08:00pm 13.3 7.4 7.7 69 2.8 WNW 28 35 15 19 1011.3 1011.3 0.0
18/07:30pm 13.6 5.6 7.6 67 3.0 W 39 48 21 26 1011.7 1011.7 0.0
18/07:00pm 13.7 5.8 7.7 67 3.0 W 39 43 21 23 1011.4 1011.4 0.0
18/06:30pm 13.7 6.7 6.8 63 3.3 W 33 44 18 24 1011.4 1011.4 0.0
18/06:00pm 13.7 4.9 7.2 65 3.2 W 43 50 23 27 1011.0 1011.0 0.0
18/05:30pm 13.9 5.4 7.0 63 3.4 W 41 48 22 26 1011.0 1011.0 0.0
18/05:00pm 14.6 7.3 7.4 62 3.6 W 35 52 19 28 1010.8 1010.8 0.0
18/04:30pm 14.5 7.0 8.0 65 3.2 W 37 46 20 25 1011.0 1011.0 0.0
18/04:00pm 14.2 5.9 7.9 66 3.1 W 41 52 22 28 1011.3 1011.3 0.0
18/03:50pm 14.2 7.0 7.5 64 3.3 WNW 35 54 19 29 1011.5 1011.5 0.0
18/03:30pm 14.1 7.0 7.9 66 3.1 W 35 44 19 24 1011.6 1011.6 0.0
18/03:00pm 14.1 5.0 8.3 68 2.9 W 46 59 25 32 1011.5 1011.5 0.0
18/02:32pm 14.0 5.8 8.2 68 2.9 W 41 59 22 32 1011.5 1011.5 0.0
18/02:30pm 14.0 6.3 8.6 70 2.7 W 39 48 21 26 1011.6 1011.6 0.0
18/02:00pm 14.1 6.8 8.9 71 2.6 W 37 44 20 24 1011.7 1011.7 0.0
18/01:30pm 14.1 8.1 8.7 70 2.7 WNW 30 41 16 22 1012.0 1012.0 0.0
18/01:00pm 14.3 8.2 8.3 67 3.0 WNW 30 43 16 23 1012.5 1012.5 0.0
18/12:30pm 14.4 8.0 8.4 67 3.0 WNW 32 46 17 25 1012.8 1012.8 0.0
18/12:10pm 14.6 7.5 7.9 64 3.3 WNW 35 54 19 29 1012.9 1012.9 0.0
18/12:00pm 14.6 8.1 8.3 66 3.2 WNW 32 48 17 26 1013.1 1013.1 0.0
18/11:58am 14.6 8.6 8.5 67 3.1 WNW 30 48 16 26 1013.1 1013.1 0.0
18/11:30am 14.6 8.1 8.8 68 2.9 WNW 33 48 18 26 1013.3 1013.3 0.0
18/11:00am 14.5 6.8 8.7 68 2.9 WNW 39 50 21 27 1013.6 1013.6 0.0
18/10:50am 14.6 8.0 8.5 67 3.1 WNW 33 50 18 27 1013.5 1013.5 0.0
18/10:30am 14.9 11.1 9.1 68 3.0 W 19 32 10 17 1013.8 1013.8 0.0
18/10:00am 14.1 10.6 8.7 70 2.7 W 17 32 9 17 1014.3 1014.3 0.0
18/09:30am 14.0 10.5 8.8 71 2.6 WSW 17 35 9 19 1014.1 1014.1 0.0
18/09:00am 13.9 8.4 9.1 73 2.4 W 28 44 15 24 1014.1 1014.1 0.4
18/08:30am 14.0 7.2 9.4 74 2.4 W 35 44 19 24 1013.9 1013.9 0.4
18/08:00am 13.6 7.1 8.9 73 2.4 W 33 43 18 23 1013.7 1013.7 0.4
18/07:30am 13.7 7.7 8.7 72 2.5 WNW 30 37 16 20 1013.4 1013.4 0.4
18/07:00am 13.6 7.1 8.2 70 2.7 WNW 32 43 17 23 1013.3 1013.3 0.4
18/06:30am 13.8 6.4 8.2 69 2.8 W 37 48 20 26 1012.9 1012.9 0.4
18/06:04am 13.7 5.9 8.1 69 2.8 WNW 39 57 21 31 1012.9 1012.9 0.4
18/06:00am 13.8 5.2 8.0 68 2.9 W 43 57 23 31 1012.8 1012.8 0.4
18/05:30am 13.5 5.7 8.1 70 2.7 WNW 39 54 21 29 1013.0 1013.0 0.4
18/05:00am 13.5 5.3 8.1 70 2.7 WNW 41 56 22 30 1012.8 1012.8 0.4
18/04:30am 13.6 5.8 6.7 63 3.3 WNW 37 56 20 30 1012.6 1012.6 0.4
18/04:12am 13.5 6.2 7.3 66 3.0 WNW 35 56 19 30 1012.6 1012.6 0.4
18/04:00am 13.4 5.7 7.2 66 3.0 WNW 37 52 20 28 1012.7 1012.7 0.4
18/03:32am 13.3 6.4 7.3 67 2.9 WNW 33 52 18 28 1013.0 1013.0 0.4
18/03:30am 13.3 6.1 7.5 68 2.8 WNW 35 52 19 28 1013.0 1013.0 0.4
18/03:00am 13.2 6.2 7.0 66 3.0 WNW 33 50 18 27 1013.2 1013.2 0.4
18/02:32am 13.0 5.4 7.5 69 2.7 WNW 37 56 20 30 1013.2 1013.2 0.4
18/02:30am 13.0 5.8 7.5 69 2.7 WNW 35 52 19 28 1013.3 1013.3 0.4
18/02:00am 12.9 4.5 7.4 69 2.7 WNW 41 54 22 29 1014.0 1014.0 0.4
18/01:30am 12.8 5.6 7.7 71 2.5 WNW 35 54 19 29 1014.6 1014.6 0.4
18/01:27am 12.8 5.6 7.5 70 2.6 WNW 35 54 19 29 1014.6 1014.6 0.4
18/01:00am 12.8 4.9 7.7 71 2.5 WNW 39 56 21 30 1014.6 1014.6 0.4
18/12:30am 12.8 4.8 7.5 70 2.6 WNW 39 59 21 32 1014.4 1014.4 0.4
18/12:13am 12.7 4.7 7.4 70 2.6 WNW 39 57 21 31 1014.5 1014.5 0.4
18/12:00am 12.7 4.4 7.6 71 2.5 WNW 41 56 22 30 1014.5 1014.5 0.4
 
Date/Time
EST
Temp
°C
App
Temp
°C
Dew
Point
°C
Rel
Hum
%
Delta-T
°C
Wind Press
QNH
hPa
Press
MSL
hPa
Rain since
9am
mm
Dir  Spd
km/h
Gust
km/h
Spd
kts
Gust
kts
17/11:30pm 12.8 4.4 7.5 70 2.6 WNW 41 59 22 32 1014.7 1014.7 0.4
17/11:15pm 12.9 4.4 7.1 68 2.8 WNW 41 59 22 32 1014.9 1014.9 0.4
17/11:00pm 12.9 4.8 7.1 68 2.8 WNW 39 56 21 30 1014.9 1014.9 0.4
17/10:30pm 13.0 5.0 7.5 69 2.7 WNW 39 59 21 32 1015.0 1015.0 0.4
17/10:00pm 12.9 5.3 7.4 69 2.7 WNW 37 56 20 30 1015.2 1015.2 0.4
17/09:40pm 12.9 5.6 7.4 69 2.7 WNW 35 54 19 29 1015.4 1015.4 0.4
17/09:30pm 12.9 5.5 6.9 67 2.9 WNW 35 52 19 28 1015.5 1015.5 0.4
17/09:00pm 13.0 4.9 7.2 68 2.8 WNW 39 57 21 31 1015.5 1015.5 0.4
17/08:51pm 12.9 6.1 7.1 68 2.8 WNW 32 57 17 31 1015.5 1015.5 0.4
17/08:30pm 12.9 6.0 7.4 69 2.7 WNW 33 48 18 26 1015.6 1015.6 0.4
17/08:02pm 12.5 6.5 7.2 70 2.6 WNW 28 46 15 25 1015.6 1015.6 0.4
17/08:00pm 12.5 6.2 7.2 70 2.6 WNW 30 46 16 25 1015.6 1015.6 0.4
17/07:30pm 12.5 4.9 7.4 71 2.5 WNW 37 52 20 28 1015.7 1015.7 0.4
17/07:18pm 12.4 6.1 7.5 72 2.4 WNW 30 48 16 26 1015.7 1015.7 0.4
17/07:00pm 12.4 5.5 7.3 71 2.5 WNW 33 44 18 24 1015.7 1015.7 0.4
17/06:41pm 12.3 6.5 8.0 75 2.1 WNW 28 48 15 26 1015.7 1015.7 0.4
17/06:30pm 11.7 7.9 8.9 83 1.4 W 19 24 10 13 1015.8 1015.8 0.4
17/06:00pm 12.5 7.8 9.1 80 1.7 WSW 24 30 13 16 1015.8 1015.8 0.4
17/05:30pm 12.5 8.5 9.0 79 1.8 WSW 20 30 11 16 1015.6 1015.6 0.4
17/05:00pm 12.9 7.3 8.6 75 2.2 WSW 28 35 15 19 1015.3 1015.3 0.4
17/04:30pm 13.8 8.6 8.8 72 2.5 W 26 39 14 21 1015.2 1015.2 0.4
17/04:00pm 14.0 7.8 8.0 67 3.0 WNW 30 41 16 22 1015.2 1015.2 0.4
17/03:30pm 14.1 9.5 9.7 75 2.3 W 24 35 13 19 1015.3 1015.3 0.4
17/03:00pm 14.1 8.0 9.7 75 2.3 WSW 32 43 17 23 1015.0 1015.0 0.4
17/02:30pm 14.7 8.2 10.3 75 2.3 WSW 35 44 19 24 1014.8 1014.8 0.4
17/02:00pm 14.2 8.3 10.6 79 1.9 WSW 32 41 17 22 1014.8 1014.8 0.4
17/01:30pm 14.4 8.3 10.6 78 2.0 WSW 33 39 18 21 1015.0 1015.0 0.4
17/01:00pm 13.1 7.2 11.2 88 1.0 WSW 33 46 18 25 1015.2 1015.2 0.4
17/12:30pm 13.8 7.9 10.4 80 1.8 WSW 32 44 17 24 1015.4 1015.4 0.2
17/12:00pm 13.7 7.0 9.7 77 2.1 WSW 35 46 19 25 1015.7 1015.7 0.2
17/11:46am 14.0 7.9 9.6 75 2.3 WSW 32 52 17 28 1015.8 1015.8 0.2
17/11:41am 13.9 8.9 9.5 75 2.3 WSW 26 41 14 22 1015.9 1015.9 0.2
17/11:30am 15.0 12.6 10.2 73 2.5 W 13 17 7 9 1016.0 1016.0 0.2
17/11:00am 14.2 12.1 11.2 82 1.6 WNW 13 17 7 9 1016.0 1016.0 0.2
17/10:30am 12.7 9.7 10.6 87 1.1 WNW 17 24 9 13 1015.9 1015.9 0.2
17/10:00am 13.3 9.5 9.9 80 1.8 WNW 20 43 11 23 1015.7 1015.7 0.0
17/09:30am 13.5 10.5 9.2 75 2.2 NW 15 22 8 12 1015.4 1015.4 0.0
17/09:00am 13.3 7.0 9.0 75 2.2 WNW 32 46 17 25 1015.6 1015.6 0.0
17/08:30am 13.4 7.6 8.0 70 2.7 WNW 28 39 15 21 1015.6 1015.6 0.0
17/08:00am 13.2 9.0 7.6 69 2.7 NW 19 28 10 15 1015.6 1015.6 0.0
17/07:30am 12.9 7.4 7.6 70 2.6 NW 26 39 14 21 1015.0 1015.0 0.0
17/07:00am 12.7 7.5 7.2 69 2.7 NW 24 30 13 16 1015.0 1015.0 0.0
17/06:30am 13.0 5.6 6.8 66 3.0 WNW 35 50 19 27 1014.8 1014.8 0.0
17/06:26am 13.0 6.6 6.8 66 3.0 WNW 30 48 16 26 1014.8 1014.8 0.0
17/06:00am 12.7 6.5 6.3 65 3.0 WNW 28 44 15 24 1015.0 1015.0 0.0
17/05:40am 12.9 5.9 6.0 63 3.3 WNW 32 52 17 28 1014.8 1014.8 0.0
17/05:30am 12.9 5.3 6.0 63 3.3 WNW 35 52 19 28 1014.7 1014.7 0.0
17/05:00am 12.7 4.8 6.3 65 3.0 WNW 37 56 20 30 1014.9 1014.9 0.0
17/04:30am 12.5 3.5 6.3 66 2.9 W 43 61 23 33 1015.1 1015.1 0.0
17/04:06am 12.5 3.9 6.3 66 2.9 W 41 59 22 32 1015.0 1015.0 0.0
17/04:00am 12.5 3.2 6.1 65 3.0 W 44 61 24 33 1015.0 1015.0 0.0
17/03:30am 12.4 3.0 5.6 63 3.2 W 44 57 24 31 1015.0 1015.0 0.0
17/03:04am 12.5 3.2 5.2 61 3.4 W 43 61 23 33 1015.1 1015.1 0.0
17/03:00am 12.4 3.2 5.6 63 3.2 W 43 57 23 31 1015.2 1015.2 0.0
17/02:40am 12.5 2.7 5.4 62 3.3 W 46 70 25 38 1015.0 1015.0 0.0
17/02:30am 12.4 3.0 5.6 63 3.2 W 44 59 24 32 1015.2 1015.2 0.0

Other formats

Comma delimited format used in spreadsheet applications
http://www.bom.gov.au/fwo/IDT60801/IDT60801.95967.axf

JavaScript Object Notation format (JSON) in row-major order
http://www.bom.gov.au/fwo/IDT60801/IDT60801.95967.json

Data quality

Most of these data are generated automatically and are frequently updated. Quality checks on data are not normally performed. It is possible for incorrect values to appear. Refer to information at About Latest Weather Observations and please check the disclaimer before using these data.